Terminal Aerodrome Forecast
Issued by NWS

Home | Current Version | Previous Version | Text Only | Print | Product List | Glossary On
Versions: 1 2 3 4 5 6 7 8 9 10 11 12 13 14 15 16 17 18 19 20 21 22 23 24 25 26 27 28 29 30 31 32 33 34 35 36 37 38 39
000
FTAK31 PAFA 022339
TAFAFA
TAF
PAFA 022339Z 0300/0406 04003KT P6SM SKC
     FM031200 00000KT P6SM BKN200
     FM032100 VRB03KT P6SM BKN050 OVC090
     FM040000 VRB03KT P6SM VCSH BKN050 OVC090=

USA.gov is the U.S. government's official web portal to all federal, state and local government web resources and services.